Time;durP1;ratioP1;P1;durP2;ratioP2;P2;SDS_P1;SDS_P2;PMS_P1;PMS_P2;Temp;Humidity;BMP_temperature;BMP_pressure;BME280_temperature;BME280_humidity;BME280_pressure;Samples;Min_cycle;Max_cycle;Signal;HPM_P1;HPM_P2
2021/12/18 00:00:03;;;;;;;43.05;29.90;;;9.30;99.90;;;;;;5073109;28;20116;-78
2021/12/18 00:02:28;;;;;;;40.28;30.00;;;9.30;99.90;;;;;;5071400;28;20115;-78
2021/12/18 00:04:54;;;;;;;41.83;30.48;;;9.40;99.90;;;;;;5073211;28;20082;-76
2021/12/18 00:07:20;;;;;;;40.35;30.27;;;9.50;99.90;;;;;;5073099;28;20032;-78
2021/12/18 00:09:47;;;;;;;43.90;31.98;;;9.20;99.90;;;;;;5057552;28;20057;-78
2021/12/18 00:12:13;;;;;;;42.70;30.92;;;9.40;99.90;;;;;;5053220;28;20533;-78
2021/12/18 00:14:39;;;;;;;46.97;32.20;;;9.30;99.90;;;;;;5052903;28;20124;-78
2021/12/18 00:17:05;;;;;;;44.60;31.95;;;9.30;99.90;;;;;;5052614;28;20025;-78
2021/12/18 00:19:31;;;;;;;43.55;32.70;;;9.30;99.90;;;;;;5050984;28;20036;-78
2021/12/18 00:21:56;;;;;;;47.75;32.80;;;9.20;99.90;;;;;;5052998;28;20079;-77
2021/12/18 00:24:24;;;;;;;44.72;31.98;;;9.10;99.90;;;;;;5052803;28;20039;-78
2021/12/18 00:26:50;;;;;;;51.28;34.92;;;9.00;99.90;;;;;;5067203;28;20396;-78
2021/12/18 00:29:16;;;;;;;53.10;34.30;;;9.00;99.90;;;;;;5071493;28;20032;-78
2021/12/18 00:31:42;;;;;;;52.53;35.70;;;9.00;99.90;;;;;;5072455;28;20025;-77
2021/12/18 00:34:07;;;;;;;55.05;35.35;;;9.10;99.90;;;;;;5072927;28;20066;-77
2021/12/18 00:36:33;;;;;;;53.40;37.25;;;9.00;99.90;;;;;;5072652;28;20035;-78
2021/12/18 00:38:59;;;;;;;57.22;37.53;;;9.20;99.90;;;;;;5072789;28;20051;-78
2021/12/18 00:44:03;;;;;;;56.03;35.72;;;9.30;99.90;;;;;;5072774;28;20051;-77
2021/12/18 00:46:43;;;;;;;54.33;35.28;;;9.40;99.90;;;;;;5072650;28;20040;-78
2021/12/18 00:49:13;;;;;;;61.50;36.97;;;9.50;99.90;;;;;;5072344;28;20020;-78
2021/12/18 00:51:38;;;;;;;63.47;37.88;;;9.20;99.90;;;;;;5072531;28;20083;-78
2021/12/18 00:54:04;;;;;;;66.32;39.70;;;9.00;99.90;;;;;;5072606;28;20048;-78
2021/12/18 00:56:30;;;;;;;61.58;38.38;;;9.10;99.90;;;;;;5072512;28;20074;-78
2021/12/18 00:58:56;;;;;;;59.97;38.33;;;9.30;99.90;;;;;;5072227;28;20027;-78
2021/12/18 01:01:23;;;;;;;54.25;34.58;;;9.50;99.90;;;;;;5072401;28;20366;-78
2021/12/18 01:03:50;;;;;;;62.72;37.63;;;9.40;99.90;;;;;;5072456;28;20035;-78
2021/12/18 01:06:19;;;;;;;60.15;37.53;;;9.50;99.90;;;;;;5071201;28;20078;-78
2021/12/18 01:08:46;;;;;;;59.63;36.92;;;9.60;99.90;;;;;;5065242;28;20048;-78
2021/12/18 01:11:31;;;;;;;61.35;37.13;;;9.60;99.90;;;;;;5051312;28;20094;-78
2021/12/18 01:16:38;;;;;;;59.97;37.53;;;9.50;99.90;;;;;;5052372;28;20108;-78
2021/12/18 01:24:43;;;;;;;61.15;37.17;;;9.40;99.90;;;;;;5052279;28;20477;-77
2021/12/18 01:27:09;;;;;;;59.80;37.63;;;9.30;99.90;;;;;;5069027;28;20097;-78
2021/12/18 01:29:35;;;;;;;59.20;36.60;;;9.30;99.90;;;;;;5070758;28;20028;-78
2021/12/18 01:32:01;;;;;;;57.05;37.60;;;9.20;99.90;;;;;;5073568;28;20024;-77
2021/12/18 01:34:26;;;;;;;60.28;34.92;;;9.40;99.90;;;;;;5076025;28;20028;-78
2021/12/18 01:36:52;;;;;;;54.67;35.10;;;9.50;99.90;;;;;;5075482;28;20169;-78
2021/12/18 01:39:18;;;;;;;55.47;34.35;;;9.50;99.90;;;;;;5075812;28;20461;-78
2021/12/18 01:52:53;;;;;;;53.05;32.50;;;9.60;99.90;;;;;;5075546;28;20101;-78
2021/12/18 01:55:20;;;;;;;56.85;33.00;;;9.60;99.90;;;;;;5075475;28;20107;-78
2021/12/18 01:57:46;;;;;;;62.25;35.67;;;9.30;99.90;;;;;;5075187;28;20449;-77
2021/12/18 02:00:16;;;;;;;61.42;35.58;;;9.40;99.90;;;;;;5075652;28;20039;-78
2021/12/18 02:02:42;;;;;;;63.67;34.53;;;9.60;99.90;;;;;;5075330;28;20040;-78
2021/12/18 02:05:08;;;;;;;59.67;34.00;;;9.60;99.90;;;;;;5069419;28;20451;-78
2021/12/18 02:07:34;;;;;;;57.08;32.70;;;9.50;99.90;;;;;;5054634;28;20033;-78
2021/12/18 02:10:04;;;;;;;57.17;32.38;;;9.40;99.90;;;;;;5072196;28;20116;-77
2021/12/18 02:12:46;;;;;;;52.65;32.25;;;9.30;99.90;;;;;;5073646;28;20025;-79
2021/12/18 02:20:47;;;;;;;51.65;31.10;;;8.90;99.90;;;;;;5073621;28;20041;-78
2021/12/18 02:23:13;;;;;;;50.45;30.60;;;9.00;99.90;;;;;;5074813;28;20060;-78
2021/12/18 02:25:40;;;;;;;55.03;30.23;;;9.00;99.90;;;;;;5074595;28;20252;-78
2021/12/18 02:28:12;;;;;;;62.10;31.40;;;9.10;99.90;;;;;;5074781;28;20135;-78
2021/12/18 02:30:38;;;;;;;63.30;34.13;;;9.00;99.90;;;;;;5074771;28;20097;-78
2021/12/18 02:33:04;;;;;;;69.75;35.13;;;9.20;99.90;;;;;;5074684;28;20020;-78
2021/12/18 02:35:41;;;;;;;70.40;36.30;;;9.50;99.90;;;;;;5075015;28;20494;-78
2021/12/18 02:38:19;;;;;;;68.95;37.05;;;9.40;99.90;;;;;;5074698;28;20473;-78
2021/12/18 02:43:29;;;;;;;68.47;35.20;;;9.50;99.90;;;;;;5072726;28;20037;-77
2021/12/18 02:45:59;;;;;;;65.60;34.28;;;9.60;99.90;;;;;;5074732;28;20044;-77
2021/12/18 02:48:28;;;;;;;59.38;32.25;;;9.40;99.90;;;;;;5074366;28;20036;-77
2021/12/18 02:50:54;;;;;;;70.65;34.85;;;9.40;99.90;;;;;;5074504;28;20028;-78
2021/12/18 02:53:20;;;;;;;56.67;30.85;;;9.40;99.90;;;;;;5073048;28;20024;-79
2021/12/18 02:56:00;;;;;;;66.70;33.65;;;9.30;99.90;;;;;;5074127;28;20025;-79
2021/12/18 02:58:26;;;;;;;67.78;36.38;;;9.50;99.90;;;;;;5074097;28;20060;-78
2021/12/18 03:00:56;;;;;;;69.70;36.80;;;9.40;99.90;;;;;;5074289;28;20595;-78
2021/12/18 03:03:26;;;;;;;72.13;35.38;;;9.20;99.90;;;;;;5072975;28;20040;-78
2021/12/18 03:08:43;;;;;;;72.65;36.08;;;9.40;99.90;;;;;;5073932;28;20408;-78
2021/12/18 03:27:22;;;;;;;60.15;32.47;;;9.30;99.90;;;;;;5073578;28;20041;-78
2021/12/18 03:29:48;;;;;;;58.75;30.55;;;9.00;99.90;;;;;;5073791;28;20062;-78
2021/12/18 03:32:14;;;;;;;57.45;30.90;;;8.90;99.90;;;;;;5073686;28;20032;-79
2021/12/18 03:34:40;;;;;;;60.25;33.03;;;8.90;99.90;;;;;;5073373;28;20090;-74
2021/12/18 03:37:06;;;;;;;58.80;32.70;;;8.90;99.90;;;;;;5073471;28;20036;-78
2021/12/18 03:39:32;;;;;;;64.82;34.00;;;8.90;99.90;;;;;;5072178;28;20020;-79
2021/12/18 03:41:58;;;;;;;65.03;34.33;;;8.90;99.90;;;;;;5073534;28;20067;-78
2021/12/18 03:44:25;;;;;;;64.72;34.90;;;8.90;99.90;;;;;;5072114;28;20039;-78
2021/12/18 03:46:51;;;;;;;64.90;34.38;;;8.90;99.90;;;;;;5073264;28;20078;-78
2021/12/18 03:49:17;;;;;;;62.15;33.38;;;8.80;99.90;;;;;;5073263;28;20480;-79
2021/12/18 03:51:43;;;;;;;65.03;33.38;;;9.20;99.90;;;;;;5073474;28;20037;-79
2021/12/18 03:54:09;;;;;;;65.47;33.08;;;9.30;99.90;;;;;;5072208;28;20021;-78
2021/12/18 03:56:35;;;;;;;61.35;32.30;;;9.40;99.90;;;;;;5073500;28;20032;-78
2021/12/18 03:59:01;;;;;;;52.13;29.45;;;9.40;99.90;;;;;;5071853;28;20035;-78
2021/12/18 04:01:27;;;;;;;51.42;28.80;;;9.40;99.90;;;;;;5073276;28;20025;-78
2021/12/18 04:03:54;;;;;;;52.60;28.33;;;9.10;99.90;;;;;;5072905;28;20475;-78
2021/12/18 04:06:20;;;;;;;56.03;30.08;;;9.20;99.90;;;;;;5071549;28;20421;-79
2021/12/18 04:08:46;;;;;;;56.75;28.73;;;9.00;99.90;;;;;;5065549;28;20116;-79
2021/12/18 04:11:11;;;;;;;63.25;31.13;;;9.20;99.90;;;;;;5052940;28;20104;-78
2021/12/18 04:13:43;;;;;;;66.55;31.00;;;9.20;99.90;;;;;;5053118;28;20533;-78
2021/12/18 04:16:09;;;;;;;65.13;31.13;;;9.10;99.90;;;;;;5052815;28;20028;-78
2021/12/18 04:18:35;;;;;;;65.40;31.75;;;9.10;99.90;;;;;;5052581;28;20025;-79
2021/12/18 04:21:01;;;;;;;68.45;32.83;;;9.20;99.90;;;;;;5052830;28;20055;-78
2021/12/18 04:23:26;;;;;;;70.57;32.60;;;9.20;99.90;;;;;;5052582;28;20028;-79
2021/12/18 04:25:54;;;;;;;73.70;33.83;;;9.40;99.90;;;;;;5060505;28;20472;-79
2021/12/18 04:28:20;;;;;;;75.78;34.88;;;9.70;99.90;;;;;;5072709;28;20499;-78
2021/12/18 04:30:46;;;;;;;79.50;33.90;;;9.60;99.90;;;;;;5072601;28;20037;-78
2021/12/18 04:33:11;;;;;;;75.10;35.50;;;9.60;99.90;;;;;;5072807;28;20030;-79
2021/12/18 04:35:37;;;;;;;79.43;35.35;;;9.50;99.90;;;;;;5072706;28;20035;-79
2021/12/18 04:38:03;;;;;;;77.88;35.10;;;9.60;99.90;;;;;;5072487;28;20021;-79
2021/12/18 04:40:29;;;;;;;74.93;34.70;;;9.60;99.90;;;;;;5072679;28;20021;-79
2021/12/18 04:42:56;;;;;;;74.82;33.88;;;9.60;99.90;;;;;;5072809;28;20435;-78
2021/12/18 04:45:23;;;;;;;67.10;32.90;;;9.30;99.90;;;;;;5072449;28;20028;-78
2021/12/18 04:47:49;;;;;;;69.65;33.22;;;9.30;99.90;;;;;;5072668;28;20106;-78
2021/12/18 04:50:15;;;;;;;75.13;32.58;;;9.20;99.90;;;;;;5072672;28;20445;-77
2021/12/18 04:52:41;;;;;;;75.13;33.92;;;9.30;99.90;;;;;;5072538;28;20064;-78
2021/12/18 04:55:07;;;;;;;67.88;31.77;;;9.50;99.90;;;;;;5072483;28;20078;-79
2021/12/18 04:57:33;;;;;;;73.43;32.53;;;9.50;99.90;;;;;;5072394;28;20469;-78
2021/12/18 04:59:58;;;;;;;71.10;33.47;;;9.50;99.90;;;;;;5072382;28;20021;-79
2021/12/18 05:02:35;;;;;;;68.57;31.60;;;9.60;99.90;;;;;;5072455;28;20428;-79
2021/12/18 05:05:01;;;;;;;66.85;30.10;;;9.60;99.90;;;;;;5072262;28;20085;-79
2021/12/18 05:07:28;;;;;;;74.43;33.03;;;9.40;99.90;;;;;;5076268;28;20036;-78
2021/12/18 05:09:53;;;;;;;66.95;29.65;;;9.10;99.90;;;;;;5059800;28;20083;-78
2021/12/18 05:12:19;;;;;;;66.03;30.45;;;9.00;99.90;;;;;;5056230;28;20028;-78
2021/12/18 05:14:45;;;;;;;73.97;31.90;;;9.00;99.90;;;;;;5056344;28;20371;-79
2021/12/18 05:17:11;;;;;;;79.95;33.03;;;8.90;99.90;;;;;;5056180;28;20025;-79
2021/12/18 05:19:38;;;;;;;82.47;34.95;;;9.00;99.90;;;;;;5055713;28;20036;-78
2021/12/18 05:22:05;;;;;;;85.20;34.63;;;9.00;99.90;;;;;;5056203;28;20028;-79
2021/12/18 05:24:31;;;;;;;81.53;32.30;;;9.00;99.90;;;;;;5055020;28;20036;-78
2021/12/18 05:26:58;;;;;;;78.38;32.50;;;9.20;99.90;;;;;;5072872;28;20044;-78
2021/12/18 05:29:24;;;;;;;77.95;31.58;;;9.20;99.90;;;;;;5076352;28;20028;-81
2021/12/18 05:31:50;;;;;;;86.45;34.33;;;9.20;99.90;;;;;;5074478;28;20462;-81
2021/12/18 05:34:24;;;;;;;84.68;34.72;;;9.20;99.90;;;;;;5075908;28;20020;-79
2021/12/18 05:39:25;;;;;;;77.82;31.52;;;8.80;99.90;;;;;;5075811;28;20111;-78
2021/12/18 05:41:51;;;;;;;84.43;34.83;;;8.90;99.90;;;;;;5075753;28;20024;-78
2021/12/18 05:44:22;;;;;;;87.55;34.65;;;8.80;99.90;;;;;;5075659;28;20020;-77
2021/12/18 05:46:48;;;;;;;90.22;34.50;;;8.90;99.90;;;;;;5075711;28;20179;-78
2021/12/18 05:49:14;;;;;;;84.85;34.42;;;8.90;99.90;;;;;;5075251;28;20425;-78
2021/12/18 05:51:40;;;;;;;73.68;31.35;;;9.10;99.90;;;;;;5075330;28;20056;-78
2021/12/18 05:54:06;;;;;;;73.95;30.50;;;9.10;99.90;;;;;;5074447;28;20460;-79
2021/12/18 05:56:33;;;;;;;69.60;30.80;;;9.20;99.90;;;;;;5075405;28;20027;-78
2021/12/18 05:59:00;;;;;;;70.05;27.88;;;9.30;99.90;;;;;;5075381;28;20029;-78
2021/12/18 06:01:27;;;;;;;66.60;28.45;;;9.50;99.90;;;;;;5075322;28;20025;-77
2021/12/18 06:03:53;;;;;;;70.40;29.13;;;9.50;99.90;;;;;;5074056;28;20431;-78
2021/12/18 06:06:23;;;;;;;65.80;27.17;;;9.40;99.90;;;;;;5075428;28;20107;-77
2021/12/18 06:08:50;;;;;;;64.55;26.33;;;9.40;99.90;;;;;;5067804;28;20032;-78
2021/12/18 06:11:17;;;;;;;66.93;28.67;;;9.40;99.90;;;;;;5054165;28;20116;-78
2021/12/18 06:13:51;;;;;;;64.53;27.50;;;9.40;99.90;;;;;;5055070;28;20013;-78
2021/12/18 06:16:18;;;;;;;77.68;29.20;;;9.10;99.90;;;;;;5054489;28;20082;-78
2021/12/18 06:18:46;;;;;;;72.72;27.63;;;9.20;99.90;;;;;;5054653;28;20025;-78
2021/12/18 06:21:14;;;;;;;69.20;26.67;;;9.30;99.90;;;;;;5055154;28;20385;-78
2021/12/18 06:23:42;;;;;;;64.45;25.00;;;9.20;99.90;;;;;;5054906;28;20045;-78
2021/12/18 06:26:11;;;;;;;71.25;26.85;;;9.10;99.90;;;;;;5064905;28;20025;-78
2021/12/18 06:28:37;;;;;;;64.28;24.75;;;9.00;99.90;;;;;;5074884;28;20496;-78
2021/12/18 06:31:05;;;;;;;54.28;24.33;;;9.00;99.90;;;;;;5074957;28;20025;-78
2021/12/18 06:33:31;;;;;;;58.85;23.55;;;9.20;99.90;;;;;;5074607;28;20029;-78
2021/12/18 06:35:58;;;;;;;54.38;23.48;;;9.20;99.90;;;;;;5075046;28;20032;-78
2021/12/18 06:38:24;;;;;;;54.63;23.42;;;9.10;99.90;;;;;;5073403;28;20035;-78
2021/12/18 06:40:50;;;;;;;55.20;24.10;;;8.80;99.90;;;;;;5075030;28;20028;-78
2021/12/18 06:43:16;;;;;;;55.90;23.10;;;8.70;99.90;;;;;;5074607;28;20032;-78
2021/12/18 06:45:44;;;;;;;62.33;24.67;;;8.80;99.90;;;;;;5074932;28;20456;-80
2021/12/18 06:48:11;;;;;;;57.20;24.30;;;8.90;99.90;;;;;;5073322;28;20481;-77
2021/12/18 06:50:38;;;;;;;55.42;23.58;;;8.90;99.90;;;;;;5074449;28;20413;-78
2021/12/18 06:53:04;;;;;;;61.00;23.80;;;8.90;99.90;;;;;;5074432;28;20075;-79
2021/12/18 06:55:31;;;;;;;54.60;23.42;;;9.00;99.90;;;;;;5074521;28;20032;-77
2021/12/18 06:57:57;;;;;;;54.55;23.88;;;9.00;99.90;;;;;;5074260;28;20028;-79
2021/12/18 07:00:24;;;;;;;61.05;24.17;;;8.90;99.90;;;;;;5074439;28;20031;-78
2021/12/18 07:02:51;;;;;;;61.28;23.38;;;9.00;99.90;;;;;;5073981;28;20047;-78
2021/12/18 07:05:16;;;;;;;50.05;20.52;;;9.10;99.90;;;;;;5074351;28;20481;-78
2021/12/18 07:07:42;;;;;;;51.10;21.13;;;8.90;99.90;;;;;;5073807;28;20039;-78
2021/12/18 07:10:10;;;;;;;51.90;21.85;;;8.80;99.90;;;;;;5055720;28;20112;-78
2021/12/18 07:12:36;;;;;;;55.67;21.63;;;8.80;99.90;;;;;;5068715;28;20472;-79
2021/12/18 07:15:06;;;;;;;50.70;21.00;;;8.90;99.90;;;;;;5073700;28;20070;-78
2021/12/18 07:17:32;;;;;;;44.13;20.23;;;8.80;99.90;;;;;;5073431;28;20028;-79
2021/12/18 07:19:58;;;;;;;42.83;18.83;;;8.90;99.90;;;;;;5073665;28;20496;-79
2021/12/18 07:22:23;;;;;;;45.33;20.27;;;8.70;99.90;;;;;;5055982;28;20029;-79
2021/12/18 07:24:49;;;;;;;45.60;19.70;;;8.60;99.90;;;;;;5073627;28;20093;-79
2021/12/18 07:27:15;;;;;;;45.67;19.85;;;8.90;99.90;;;;;;5073595;28;20036;-80
2021/12/18 07:29:41;;;;;;;48.50;20.88;;;8.90;99.90;;;;;;5072063;28;20059;-80
2021/12/18 07:32:07;;;;;;;45.97;19.45;;;8.90;99.90;;;;;;5073578;28;20028;-80
2021/12/18 07:34:34;;;;;;;41.45;18.55;;;8.90;99.90;;;;;;5073045;28;20027;-75
2021/12/18 07:37:00;;;;;;;41.70;18.38;;;8.90;99.90;;;;;;5072168;28;20032;-79
2021/12/18 07:39:25;;;;;;;41.55;17.75;;;8.80;99.90;;;;;;5072710;28;20509;-78
2021/12/18 07:42:04;;;;;;;44.55;20.02;;;8.70;99.90;;;;;;5071872;28;20039;-81
2021/12/18 07:44:30;;;;;;;45.83;19.98;;;8.70;99.90;;;;;;5073393;28;20078;-79
2021/12/18 07:46:56;;;;;;;48.17;20.27;;;8.50;99.90;;;;;;5073039;28;20032;-78
2021/12/18 07:49:21;;;;;;;52.10;21.20;;;8.50;99.90;;;;;;5073050;28;20032;-79
2021/12/18 07:51:47;;;;;;;51.90;20.80;;;8.70;99.90;;;;;;5073240;28;20134;-79
2021/12/18 07:54:13;;;;;;;47.40;20.23;;;8.80;99.90;;;;;;5072644;28;20497;-79
2021/12/18 07:56:39;;;;;;;52.05;20.67;;;8.70;99.90;;;;;;5073486;28;20024;-80
2021/12/18 07:59:05;;;;;;;53.55;19.95;;;8.60;99.90;;;;;;5072553;28;20334;-79
2021/12/18 08:01:30;;;;;;;62.60;22.05;;;8.80;99.90;;;;;;5073116;28;20026;-80
2021/12/18 08:03:56;;;;;;;59.92;23.40;;;9.00;99.90;;;;;;5072813;28;20113;-78
2021/12/18 08:06:22;;;;;;;65.25;24.10;;;9.00;99.90;;;;;;5073111;28;20032;-79
2021/12/18 08:08:50;;;;;;;58.78;23.65;;;9.10;99.90;;;;;;5073288;28;20024;-79
2021/12/18 08:11:16;;;;;;;68.53;25.63;;;8.90;99.90;;;;;;5072734;28;20469;-79
2021/12/18 08:13:42;;;;;;;68.70;25.65;;;8.90;99.90;;;;;;5072681;28;20016;-79
2021/12/18 08:16:07;;;;;;;70.70;25.90;;;9.10;99.90;;;;;;5071562;28;20112;-79
2021/12/18 08:18:33;;;;;;;59.63;24.67;;;9.00;99.90;;;;;;5072558;28;20048;-79
2021/12/18 08:20:59;;;;;;;61.00;23.77;;;9.10;99.90;;;;;;5071445;28;20033;-79
2021/12/18 08:23:25;;;;;;;63.33;23.42;;;9.00;99.90;;;;;;5072906;28;20107;-79
2021/12/18 08:25:52;;;;;;;61.15;24.08;;;8.80;99.90;;;;;;5072509;28;20024;-79
2021/12/18 08:28:18;;;;;;;65.05;23.88;;;9.00;99.90;;;;;;5072458;28;20032;-79
2021/12/18 08:30:44;;;;;;;61.35;22.33;;;9.00;99.90;;;;;;5072640;28;20035;-80
2021/12/18 08:33:09;;;;;;;65.30;23.63;;;9.00;99.90;;;;;;5072461;28;20029;-80
2021/12/18 08:35:35;;;;;;;56.72;22.17;;;9.30;99.90;;;;;;5072565;28;20400;-80
2021/12/18 08:38:03;;;;;;;48.70;20.38;;;9.30;99.90;;;;;;5072631;28;20385;-80
2021/12/18 08:40:30;;;;;;;57.72;21.52;;;9.20;99.90;;;;;;5072034;28;20024;-79
2021/12/18 08:42:56;;;;;;;57.58;23.08;;;9.20;99.90;;;;;;5072128;28;20037;-80
2021/12/18 08:45:22;;;;;;;82.68;26.98;;;9.30;99.90;;;;;;5072390;28;20040;-82
2021/12/18 08:47:48;;;;;;;60.90;22.48;;;9.40;99.90;;;;;;5072480;28;20393;-78
2021/12/18 08:50:17;;;;;;;48.13;18.73;;;9.50;99.90;;;;;;5072177;28;20373;-82
2021/12/18 08:52:48;;;;;;;48.50;19.40;;;9.60;99.90;;;;;;5072451;28;20047;-82
2021/12/18 08:55:15;;;;;;;52.70;21.35;;;9.60;99.90;;;;;;5072474;28;20473;-85
2021/12/18 08:57:41;;;;;;;56.10;22.83;;;9.40;99.90;;;;;;5072233;28;20033;-83
2021/12/18 09:00:10;;;;;;;49.13;22.08;;;9.30;99.90;;;;;;5072324;28;20017;-83
2021/12/18 09:02:37;;;;;;;44.90;21.02;;;9.40;99.90;;;;;;5071866;28;20090;-83
2021/12/18 09:05:03;;;;;;;38.40;16.73;;;9.50;99.90;;;;;;5072599;28;20021;-82
2021/12/18 09:07:29;;;;;;;36.40;15.70;;;9.50;99.90;;;;;;5054131;28;20032;-82
2021/12/18 09:09:55;;;;;;;31.90;16.38;;;9.60;99.90;;;;;;5072068;28;20078;-82
2021/12/18 09:12:21;;;;;;;34.40;17.35;;;9.40;99.90;;;;;;5071968;28;20033;-80
2021/12/18 09:14:47;;;;;;;37.90;17.63;;;9.70;99.90;;;;;;5072293;28;20439;-82
2021/12/18 09:17:13;;;;;;;36.55;16.73;;;9.50;99.90;;;;;;5072055;28;20036;-82
2021/12/18 09:19:38;;;;;;;44.10;18.08;;;9.50;99.90;;;;;;5071612;28;20041;-79
2021/12/18 09:22:06;;;;;;;41.50;18.10;;;9.30;99.90;;;;;;5071157;28;20115;-83
2021/12/18 09:24:33;;;;;;;33.13;16.00;;;9.40;99.90;;;;;;5070959;28;20012;-82
2021/12/18 09:26:59;;;;;;;40.22;17.63;;;9.40;99.90;;;;;;5069041;28;20377;-79
2021/12/18 09:29:25;;;;;;;41.53;17.70;;;9.30;99.90;;;;;;5072124;28;20027;-79
2021/12/18 09:31:51;;;;;;;45.90;19.58;;;9.40;99.90;;;;;;5072001;28;20025;-79
2021/12/18 09:34:17;;;;;;;47.85;19.70;;;9.40;99.90;;;;;;5072283;28;20484;-79
2021/12/18 09:36:43;;;;;;;44.10;19.83;;;9.40;99.90;;;;;;5072035;28;20025;-79
2021/12/18 09:39:08;;;;;;;54.80;21.52;;;9.20;99.90;;;;;;5064062;28;20097;-79
2021/12/18 09:41:35;;;;;;;60.83;21.10;;;9.30;99.90;;;;;;5071834;28;20032;-79
2021/12/18 09:44:02;;;;;;;54.58;20.25;;;9.40;99.90;;;;;;5072157;28;20032;-79
2021/12/18 09:46:31;;;;;;;44.53;20.15;;;9.60;99.90;;;;;;5069390;28;20067;-78
2021/12/18 09:48:57;;;;;;;54.92;21.90;;;9.90;99.90;;;;;;5050460;28;20108;-80
2021/12/18 09:51:27;;;;;;;54.25;21.45;;;9.90;99.90;;;;;;5052016;28;20032;-79
2021/12/18 09:53:57;;;;;;;56.25;22.67;;;9.80;99.90;;;;;;5055506;28;20029;-79
2021/12/18 09:56:25;;;;;;;55.65;20.83;;;9.70;99.90;;;;;;5053861;28;20033;-78
2021/12/18 09:58:51;;;;;;;54.60;20.35;;;9.80;99.90;;;;;;5055396;28;20489;-79
2021/12/18 10:01:17;;;;;;;60.88;23.13;;;9.60;99.90;;;;;;5055676;28;20104;-79
2021/12/18 10:03:50;;;;;;;72.82;23.63;;;9.50;99.90;;;;;;5055248;28;20052;-79
2021/12/18 10:06:41;;;;;;;59.40;23.45;;;9.80;99.90;;;;;;5055333;28;20108;-79
2021/12/18 10:09:10;;;;;;;52.08;20.40;;;9.80;99.90;;;;;;5064647;28;20028;-79
2021/12/18 10:11:52;;;;;;;50.97;20.42;;;10.10;99.90;;;;;;5073801;28;20059;-80
2021/12/18 10:14:20;;;;;;;33.87;14.10;;;10.20;99.90;;;;;;5074097;28;20166;-80
2021/12/18 10:16:50;;;;;;;46.33;17.50;;;10.10;99.90;;;;;;5074970;28;20024;-79
2021/12/18 10:19:36;;;;;;;48.00;19.98;;;10.00;99.90;;;;;;5074857;28;20040;-79
2021/12/18 10:22:08;;;;;;;47.85;19.67;;;10.00;99.90;;;;;;5074563;28;20064;-78
2021/12/18 10:24:36;;;;;;;56.42;21.50;;;10.00;99.90;;;;;;5074800;28;20036;-75
2021/12/18 10:27:16;;;;;;;51.78;20.73;;;10.10;99.90;;;;;;5073137;28;20403;-80
2021/12/18 10:29:42;;;;;;;43.65;19.60;;;9.90;99.90;;;;;;5074815;28;20028;-79
2021/12/18 10:32:09;;;;;;;48.83;19.77;;;9.80;99.90;;;;;;5073318;28;20389;-78
2021/12/18 10:34:36;;;;;;;48.05;18.02;;;10.00;99.90;;;;;;5074164;28;20033;-78
2021/12/18 10:37:36;;;;;;;45.55;19.20;;;9.70;99.90;;;;;;5074687;28;20127;-78
2021/12/18 10:40:10;;;;;;;44.30;17.83;;;9.70;99.90;;;;;;5058485;28;20029;-79
2021/12/18 10:42:40;;;;;;;42.40;17.30;;;9.90;99.90;;;;;;5054695;28;20047;-78
2021/12/18 10:45:14;;;;;;;40.13;17.73;;;9.80;99.90;;;;;;5053808;28;20013;-79
2021/12/18 10:48:04;;;;;;;44.00;18.08;;;9.80;99.90;;;;;;5053945;28;20055;-79
2021/12/18 10:50:40;;;;;;;44.78;17.88;;;10.00;99.90;;;;;;5054257;28;20477;-79
2021/12/18 10:53:12;;;;;;;45.60;17.45;;;9.80;99.90;;;;;;5055001;28;20041;-77
2021/12/18 10:55:55;;;;;;;45.22;18.92;;;9.60;99.90;;;;;;5074338;28;20033;-79
2021/12/18 10:58:27;;;;;;;45.75;18.80;;;9.60;99.90;;;;;;5054750;28;20036;-78
2021/12/18 11:01:05;;;;;;;44.20;17.25;;;9.70;99.90;;;;;;5036128;28;20032;-79
2021/12/18 11:03:34;;;;;;;38.22;16.25;;;9.70;99.90;;;;;;5052729;28;20063;-79
2021/12/18 11:06:03;;;;;;;40.38;16.35;;;9.70;99.90;;;;;;5071071;28;20078;-79
2021/12/18 11:08:29;;;;;;;51.88;20.52;;;9.80;99.90;;;;;;5071716;28;20024;-79
2021/12/18 11:13:50;;;;;;;40.58;17.48;;;9.90;99.90;;;;;;5069767;28;20473;-79
2021/12/18 11:16:20;;;;;;;42.10;18.02;;;9.80;99.90;;;;;;5073931;28;20036;-79
2021/12/18 11:18:46;;;;;;;57.63;22.00;;;9.80;99.90;;;;;;5073368;28;20083;-78
2021/12/18 11:21:13;;;;;;;67.97;22.67;;;9.80;99.90;;;;;;5072967;28;20093;-79
2021/12/18 11:23:50;;;;;;;74.82;23.90;;;9.90;99.90;;;;;;5061319;28;20092;-79
2021/12/18 11:26:17;;;;;;;71.93;24.42;;;10.20;99.90;;;;;;5060955;28;20025;-79
2021/12/18 11:28:48;;;;;;;67.25;25.20;;;10.40;99.90;;;;;;5052811;28;20029;-79
2021/12/18 11:31:15;;;;;;;67.37;25.83;;;10.20;99.90;;;;;;5053298;28;20048;-80
2021/12/18 11:33:41;;;;;;;59.65;23.25;;;10.10;99.90;;;;;;5053281;28;20050;-79
2021/12/18 11:36:08;;;;;;;63.45;25.23;;;9.90;99.90;;;;;;5053098;28;20481;-79
2021/12/18 11:38:39;;;;;;;54.55;21.85;;;9.80;99.90;;;;;;5058159;28;20019;-79
2021/12/18 11:41:05;;;;;;;60.65;22.88;;;9.60;99.90;;;;;;5073057;28;20029;-78
2021/12/18 11:43:41;;;;;;;61.03;23.38;;;9.50;99.90;;;;;;5073131;28;20532;-80
2021/12/18 11:46:33;;;;;;;49.10;20.83;;;9.60;99.90;;;;;;5061948;28;20031;-80
2021/12/18 11:49:09;;;;;;;45.15;19.02;;;9.70;99.90;;;;;;5052103;28;20112;-79
2021/12/18 11:51:36;;;;;;;40.80;16.17;;;9.80;99.90;;;;;;5051131;28;20028;-80
2021/12/18 11:54:23;;;;;;;37.30;15.75;;;9.80;99.90;;;;;;5052496;28;20016;-79
2021/12/18 11:56:50;;;;;;;39.83;16.95;;;10.00;99.90;;;;;;5071193;28;20066;-80
2021/12/18 11:59:43;;;;;;;39.28;15.35;;;10.10;99.90;;;;;;5070901;28;20093;-80
2021/12/18 12:02:11;;;;;;;56.03;25.58;;;10.30;99.90;;;;;;5072448;28;20028;-81
2021/12/18 12:04:58;;;;;;;55.55;27.25;;;10.20;99.90;;;;;;5052786;28;20122;-80
2021/12/18 12:07:28;;;;;;;54.88;27.27;;;10.20;99.90;;;;;;5061055;28;20047;-73
2021/12/18 12:10:19;;;;;;;57.95;27.60;;;10.20;99.90;;;;;;5068873;28;20028;-79
2021/12/18 12:12:54;;;;;;;50.70;21.70;;;10.20;99.90;;;;;;5072597;28;20028;-78
2021/12/18 12:15:23;;;;;;;36.03;18.08;;;10.10;99.90;;;;;;5071948;28;20032;-79
2021/12/18 12:17:56;;;;;;;34.10;17.42;;;10.00;99.90;;;;;;5072698;28;20039;-80
2021/12/18 12:20:34;;;;;;;42.85;24.75;;;10.20;99.90;;;;;;5072310;28;20047;-81
2021/12/18 12:23:02;;;;;;;23.77;12.43;;;10.60;99.90;;;;;;5072700;28;20074;-79
2021/12/18 12:25:49;;;;;;;26.60;12.13;;;10.40;99.90;;;;;;5070370;28;20028;-79
2021/12/18 12:28:19;;;;;;;43.25;23.23;;;10.20;99.90;;;;;;5052493;28;20045;-78
2021/12/18 12:30:45;;;;;;;218.07;126.28;;;10.40;99.90;;;;;;5069716;28;20052;-79
2021/12/18 12:33:21;;;;;;;70.90;37.13;;;10.60;99.90;;;;;;5072559;28;20060;-79
2021/12/18 12:36:03;;;;;;;72.07;37.90;;;10.50;99.90;;;;;;5072164;28;20082;-79
2021/12/18 12:38:36;;;;;;;41.78;23.45;;;10.50;99.90;;;;;;5065568;28;20032;-79
2021/12/18 12:41:24;;;;;;;36.78;20.90;;;10.50;99.90;;;;;;5061113;28;20090;-79
2021/12/18 12:43:51;;;;;;;29.83;19.77;;;10.30;99.90;;;;;;5050667;28;20033;-80
2021/12/18 12:46:19;;;;;;;26.48;14.60;;;10.30;99.90;;;;;;5054464;28;20661;-79
2021/12/18 12:49:08;;;;;;;24.75;16.00;;;10.10;99.90;;;;;;5051715;28;20381;-81
2021/12/18 12:51:59;;;;;;;19.15;10.65;;;10.20;99.90;;;;;;5058848;28;20087;-81
2021/12/18 12:54:49;;;;;;;20.42;9.93;;;10.30;99.90;;;;;;5052585;28;20029;-81
2021/12/18 12:57:27;;;;;;;25.20;10.55;;;10.10;99.90;;;;;;5052315;28;20060;-82
2021/12/18 12:59:59;;;;;;;104.95;61.53;;;9.90;99.90;;;;;;5048847;28;20021;-76
2021/12/18 13:02:31;;;;;;;75.38;48.33;;;9.60;99.90;;;;;;5049916;28;20393;-79
2021/12/18 13:05:06;;;;;;;43.13;25.98;;;9.70;99.90;;;;;;5055516;28;20064;-81
2021/12/18 13:07:33;;;;;;;60.53;34.78;;;9.80;99.90;;;;;;5052072;28;20109;-79
2021/12/18 13:09:59;;;;;;;26.33;12.68;;;9.80;99.90;;;;;;5069167;28;20016;-80
2021/12/18 13:12:24;;;;;;;20.52;11.85;;;9.80;99.90;;;;;;5071560;28;20358;-82
2021/12/18 13:14:52;;;;;;;28.55;15.00;;;9.80;99.90;;;;;;5071306;28;20117;-74
2021/12/18 13:17:26;;;;;;;36.58;14.48;;;10.00;99.90;;;;;;5070479;28;20060;-74
2021/12/18 13:20:05;;;;;;;20.45;11.52;;;9.90;99.90;;;;;;5071487;28;20115;-76
2021/12/18 13:22:33;;;;;;;16.45;9.32;;;10.10;99.90;;;;;;5072096;28;20064;-77
2021/12/18 13:25:07;;;;;;;33.58;14.25;;;10.00;99.90;;;;;;5071873;28;20484;-77
2021/12/18 13:27:34;;;;;;;27.92;12.00;;;10.10;99.90;;;;;;5075406;28;20097;-77
2021/12/18 13:30:20;;;;;;;20.13;9.98;;;10.20;99.90;;;;;;5075997;28;20548;-77
2021/12/18 13:32:59;;;;;;;36.28;20.35;;;10.20;99.90;;;;;;5075506;28;20477;-77
2021/12/18 13:35:27;;;;;;;63.17;33.90;;;9.90;99.90;;;;;;5075891;28;20481;-77
2021/12/18 13:38:08;;;;;;;50.90;25.25;;;9.80;99.90;;;;;;5074332;28;20036;-76